createdAt,value
2019-05-13T00:02:16.801Z,2.97
2019-05-13T00:04:44.347Z,3.27
2019-05-13T00:07:13.452Z,2.90
2019-05-13T00:09:44.101Z,3.37
2019-05-13T00:12:10.614Z,3.77
2019-05-13T00:14:38.018Z,3.50
2019-05-13T00:17:05.478Z,3.87
2019-05-13T00:19:33.870Z,3.00
2019-05-13T00:22:03.689Z,3.20
2019-05-13T00:24:33.690Z,3.47
2019-05-13T00:27:01.107Z,3.17
2019-05-13T00:29:30.883Z,3.40
2019-05-13T00:31:58.448Z,2.73
2019-05-13T00:34:25.882Z,3.30
2019-05-13T00:37:07.374Z,3.53
2019-05-13T00:39:24.551Z,3.37
2019-05-13T00:41:53.163Z,3.40
2019-05-13T00:44:20.879Z,2.90
2019-05-13T00:46:48.707Z,3.50
2019-05-13T00:49:16.171Z,3.60
2019-05-13T00:51:44.526Z,4.00
2019-05-13T00:54:13.322Z,3.73
2019-05-13T00:56:43.434Z,4.40
2019-05-13T00:59:10.154Z,3.90
2019-05-13T01:01:39.093Z,3.50
2019-05-13T01:04:06.734Z,3.50
2019-05-13T01:06:34.346Z,4.13
2019-05-13T01:09:04.163Z,3.27
2019-05-13T01:11:34.173Z,4.50
2019-05-13T01:14:01.099Z,3.70
2019-05-13T01:16:28.610Z,3.90
2019-05-13T01:18:56.118Z,3.30
2019-05-13T01:21:24.105Z,4.77
2019-05-13T01:23:54.217Z,3.50
2019-05-13T01:26:23.310Z,3.20
2019-05-13T01:28:51.023Z,3.73
2019-05-13T01:31:18.584Z,3.17
2019-05-13T01:33:46.136Z,4.80
2019-05-13T01:36:14.076Z,3.30
2019-05-13T01:38:43.619Z,3.10
2019-05-13T01:41:13.562Z,3.27
2019-05-13T01:43:40.899Z,4.70
2019-05-13T01:46:08.381Z,4.30
2019-05-13T01:48:35.888Z,3.93
2019-05-13T01:51:03.967Z,3.37
2019-05-13T01:53:33.620Z,2.97
2019-05-13T01:56:03.877Z,3.50
2019-05-13T01:58:34.215Z,3.43
2019-05-13T02:01:04.722Z,3.33
2019-05-13T02:03:33.650Z,3.27
2019-05-13T02:06:00.499Z,3.30
2019-05-13T02:08:28.002Z,3.00
2019-05-13T02:10:56.784Z,3.20
2019-05-13T02:13:25.208Z,4.17
2019-05-13T02:15:55.243Z,3.90
2019-05-13T02:18:24.524Z,3.57
2019-05-13T02:20:54.894Z,3.93
2019-05-13T02:23:23.797Z,3.50
2019-05-13T02:25:53.836Z,3.70
2019-05-13T02:28:21.066Z,3.60
2019-05-13T02:30:48.781Z,3.80
2019-05-13T02:33:16.643Z,3.00
2019-05-13T02:35:44.057Z,4.03
2019-05-13T02:38:19.732Z,4.30
2019-05-13T02:40:43.255Z,3.30
2019-05-13T02:43:13.249Z,4.07
2019-05-13T02:45:53.486Z,4.23
2019-05-13T02:48:23.223Z,3.50
2019-05-13T02:50:52.881Z,3.33
2019-05-13T02:53:23.716Z,3.47
2019-05-13T02:55:52.263Z,4.07
2019-05-13T02:58:24.312Z,2.80
2019-05-13T03:00:53.144Z,4.10
2019-05-13T03:03:22.680Z,3.73
2019-05-13T03:05:52.342Z,3.23
2019-05-13T03:08:34.114Z,4.20
2019-05-13T03:10:47.749Z,4.07
2019-05-13T03:13:15.068Z,4.40
2019-05-13T03:15:52.379Z,4.00
2019-05-13T03:18:22.535Z,3.67
2019-05-13T03:20:52.649Z,3.87
2019-05-13T03:23:22.476Z,4.37
2019-05-13T03:25:49.101Z,4.30
2019-05-13T03:28:16.726Z,4.07
2019-05-13T03:30:46.203Z,3.90
2019-05-13T03:33:19.178Z,4.47
2019-05-13T03:35:45.591Z,4.77
2019-05-13T03:38:12.957Z,4.90
2019-05-13T03:40:42.549Z,4.27
2019-05-13T03:43:13.029Z,4.17
2019-05-13T03:45:43.362Z,4.00
2019-05-13T03:48:12.259Z,3.77
2019-05-13T03:50:43.201Z,3.63
2019-05-13T03:53:12.125Z,3.40
2019-05-13T03:55:43.160Z,3.53
2019-05-13T03:58:13.098Z,4.17
2019-05-13T04:00:42.953Z,3.70
2019-05-13T04:03:13.365Z,4.00
2019-05-13T04:05:43.708Z,3.33
2019-05-13T04:08:13.298Z,3.77
2019-05-13T04:10:42.114Z,4.20
2019-05-13T04:13:12.417Z,3.73
2019-05-13T04:15:42.829Z,3.73
2019-05-13T04:18:12.598Z,4.20
2019-05-13T04:20:42.414Z,4.23
2019-05-13T04:23:12.574Z,5.30
2019-05-13T04:25:44.569Z,3.60
2019-05-13T04:28:09.306Z,4.07
2019-05-13T04:30:37.102Z,6.67
2019-05-13T04:33:04.586Z,4.40
2019-05-13T04:35:33.347Z,4.57
2019-05-13T04:38:03.530Z,4.33
2019-05-13T04:40:33.222Z,4.13
2019-05-13T04:43:02.896Z,4.27
2019-05-13T04:45:32.957Z,3.60
2019-05-13T04:48:02.943Z,4.53
2019-05-13T04:50:28.844Z,4.47
2019-05-13T04:52:57.373Z,4.80
2019-05-13T04:55:25.598Z,4.30
2019-05-13T04:57:53.713Z,4.37
2019-05-13T05:01:02.716Z,3.80
2019-05-13T05:03:44.662Z,4.37
2019-05-13T05:06:42.377Z,5.10
2019-05-13T05:10:15.523Z,5.17
2019-05-13T05:13:04.926Z,4.27
2019-05-13T05:16:23.957Z,4.40
2019-05-13T05:19:28.343Z,4.83
2019-05-13T05:22:06.597Z,4.23
2019-05-13T05:25:01.638Z,4.97
2019-05-13T05:27:58.095Z,3.53
2019-05-13T05:30:57.543Z,4.27
2019-05-13T05:37:01.404Z,4.27
2019-05-13T05:39:31.380Z,4.00
2019-05-13T05:41:58.985Z,4.77
2019-05-13T05:44:27.786Z,5.00
2019-05-13T05:46:58.001Z,5.50
2019-05-13T05:49:26.000Z,4.50
2019-05-13T05:52:01.567Z,3.50
2019-05-13T05:54:32.222Z,3.80
2019-05-13T05:57:02.264Z,3.67
2019-05-13T05:59:32.054Z,4.10
2019-05-13T06:02:02.001Z,2.80
2019-05-13T06:04:32.277Z,3.90
2019-05-13T06:06:59.092Z,3.90
2019-05-13T06:09:26.765Z,3.60
2019-05-13T06:11:54.467Z,3.80
2019-05-13T06:14:23.478Z,3.73
2019-05-13T06:16:51.883Z,3.33
2019-05-13T06:19:22.351Z,3.17
2019-05-13T06:21:51.287Z,3.33
2019-05-13T06:24:18.616Z,3.90
2019-05-13T06:26:46.259Z,3.70
2019-05-13T06:29:13.796Z,2.90
2019-05-13T06:31:42.080Z,4.77
2019-05-13T06:34:09.626Z,3.20
2019-05-13T06:36:37.725Z,2.80
2019-05-13T06:39:06.839Z,3.13
2019-05-13T06:41:34.457Z,3.40
2019-05-13T06:44:02.722Z,3.53
2019-05-13T06:46:32.313Z,4.77
2019-05-13T06:49:02.908Z,2.93
2019-05-13T06:51:31.396Z,3.87
2019-05-13T06:54:01.655Z,3.33
2019-05-13T06:56:28.920Z,3.00
2019-05-13T06:58:56.456Z,3.40
2019-05-13T07:01:24.295Z,3.30
2019-05-13T07:03:52.001Z,3.67
2019-05-13T07:06:21.732Z,3.33
2019-05-13T07:08:49.034Z,3.27
2019-05-13T07:11:21.616Z,3.70
2019-05-13T07:13:47.178Z,2.87
2019-05-13T07:16:14.752Z,2.90
2019-05-13T07:18:42.222Z,2.70
2019-05-13T07:21:11.848Z,2.70
2019-05-13T07:23:42.278Z,2.90
2019-05-13T07:26:12.276Z,2.70
2019-05-13T07:28:42.671Z,2.93
2019-05-13T07:31:11.579Z,2.80
2019-05-13T07:33:39.290Z,2.63
2019-05-13T07:36:07.895Z,2.83
2019-05-13T07:38:35.501Z,2.33
2019-05-13T07:41:04.447Z,2.27
2019-05-13T07:43:33.079Z,2.50
2019-05-13T07:46:02.140Z,2.23
2019-05-13T07:48:31.934Z,2.57
2019-05-13T07:51:01.376Z,1.97
2019-05-13T07:53:29.055Z,2.30
2019-05-13T07:55:56.720Z,2.97
2019-05-13T07:58:24.328Z,2.30
2019-05-13T08:00:52.135Z,1.80
2019-05-13T08:03:21.374Z,1.60
2019-05-13T08:05:51.335Z,2.00
2019-05-13T08:08:21.873Z,2.17
2019-05-13T08:10:49.238Z,1.60
2019-05-13T08:13:17.232Z,1.80
2019-05-13T08:15:45.025Z,2.00
2019-05-13T08:18:12.724Z,1.90
2019-05-13T08:20:41.990Z,1.70
2019-05-13T08:23:11.800Z,1.40
2019-05-13T08:25:39.462Z,1.97
2019-05-13T08:28:07.706Z,1.40
2019-05-13T08:30:35.179Z,1.10
2019-05-13T08:33:03.015Z,2.10
2019-05-13T08:35:31.523Z,1.70
2019-05-13T08:38:01.394Z,1.90
2019-05-13T08:40:28.742Z,1.87
2019-05-13T08:42:56.343Z,1.67
2019-05-13T08:45:24.166Z,1.40
2019-05-13T08:47:51.701Z,1.80
2019-05-13T08:50:21.854Z,1.73
2019-05-13T08:52:48.585Z,1.50
2019-05-13T08:55:16.572Z,1.60
2019-05-13T08:57:44.313Z,1.50
2019-05-13T09:00:13.707Z,1.87
2019-05-13T09:02:42.084Z,2.17
2019-05-13T09:05:12.079Z,1.97
2019-05-13T09:07:41.249Z,1.63
2019-05-13T09:10:08.938Z,2.60
2019-05-13T09:12:40.159Z,1.77
2019-05-13T09:15:05.983Z,1.40
2019-05-13T09:17:34.553Z,2.40
2019-05-13T09:20:02.753Z,1.37
2019-05-13T09:22:31.878Z,1.57
2019-05-13T09:25:02.077Z,2.70
2019-05-13T09:27:31.714Z,1.60
2019-05-13T09:29:58.954Z,1.50
2019-05-13T09:32:27.161Z,1.47
2019-05-13T09:34:54.702Z,1.67
2019-05-13T09:37:22.597Z,1.87
2019-05-13T09:39:51.638Z,1.60
2019-05-13T09:42:21.672Z,1.40
2019-05-13T09:44:49.432Z,1.70
2019-05-13T09:47:17.496Z,1.63
2019-05-13T09:49:44.952Z,1.60
2019-05-13T09:52:15.314Z,1.70
2019-05-13T09:54:45.342Z,2.17
2019-05-13T09:57:14.029Z,1.50
2019-05-13T09:59:42.316Z,1.90
2019-05-13T10:02:12.506Z,1.50
2019-05-13T10:04:59.075Z,1.50
2019-05-13T10:07:26.670Z,1.80
2019-05-13T10:09:54.231Z,1.07
2019-05-13T10:12:24.295Z,1.63
2019-05-13T10:14:51.473Z,2.37
2019-05-13T10:17:19.213Z,1.60
2019-05-13T10:19:46.798Z,1.63
2019-05-13T10:22:14.413Z,1.77
2019-05-13T10:24:42.971Z,1.37
2019-05-13T10:27:12.251Z,1.60
2019-05-13T10:29:42.409Z,1.60
2019-05-13T10:32:09.612Z,1.70
2019-05-13T10:34:37.545Z,1.53
2019-05-13T10:37:05.357Z,1.80
2019-05-13T10:39:33.259Z,1.50
2019-05-13T10:42:03.624Z,1.70
2019-05-13T10:44:30.325Z,2.00
2019-05-13T10:46:58.301Z,2.13
2019-05-13T10:49:25.929Z,1.67
2019-05-13T10:51:53.569Z,1.60
2019-05-13T10:54:21.778Z,2.03
2019-05-13T10:56:52.186Z,1.37
2019-05-13T10:59:18.794Z,1.70
2019-05-13T11:01:46.375Z,1.83
2019-05-13T11:04:14.057Z,1.47
2019-05-13T11:06:41.753Z,1.30
2019-05-13T11:09:12.988Z,1.53
2019-05-13T11:11:41.352Z,1.47
2019-05-13T11:14:14.510Z,1.80
2019-05-13T11:16:42.647Z,1.20
2019-05-13T11:19:12.079Z,1.37
2019-05-13T11:21:43.102Z,1.63
2019-05-13T11:24:12.446Z,1.70
2019-05-13T11:26:41.828Z,1.70
2019-05-13T11:29:11.615Z,2.00
2019-05-13T11:31:42.493Z,1.50
2019-05-13T11:34:09.382Z,1.60
2019-05-13T11:36:36.907Z,1.63
2019-05-13T11:39:07.322Z,1.80
2019-05-13T11:41:34.955Z,2.00
2019-05-13T11:44:13.019Z,1.50
2019-05-13T11:46:33.458Z,1.90
2019-05-13T11:49:02.490Z,2.47
2019-05-13T11:51:31.967Z,2.40
2019-05-13T11:54:03.660Z,1.97
2019-05-13T11:56:36.066Z,2.53
2019-05-13T11:59:04.590Z,1.80
2019-05-13T12:01:33.708Z,1.63
2019-05-13T12:04:02.933Z,1.60
2019-05-13T12:06:33.844Z,1.83
2019-05-13T12:09:03.157Z,1.50
2019-05-13T12:11:33.383Z,1.80
2019-05-13T12:14:00.979Z,1.50
2019-05-13T12:16:28.734Z,1.40
2019-05-13T12:18:56.601Z,1.83
2019-05-13T12:21:26.211Z,1.60
2019-05-13T12:23:55.675Z,1.70
2019-05-13T12:26:23.965Z,1.50
2019-05-13T12:28:53.641Z,2.00
2019-05-13T12:31:22.311Z,2.13
2019-05-13T12:33:52.214Z,1.70
2019-05-13T12:36:23.483Z,1.07
2019-05-13T12:38:53.681Z,1.50
2019-05-13T12:41:22.766Z,1.43
2019-05-13T12:43:49.185Z,1.60
2019-05-13T12:46:16.633Z,1.40
2019-05-13T12:48:44.596Z,2.00
2019-05-13T12:51:13.192Z,1.40
2019-05-13T12:53:43.449Z,1.10
2019-05-13T12:56:12.547Z,1.70
2019-05-13T12:58:40.401Z,1.50
2019-05-13T13:01:07.974Z,1.37
2019-05-13T13:03:35.731Z,1.00
2019-05-13T13:06:25.738Z,1.17
2019-05-13T13:08:42.321Z,1.60
2019-05-13T13:11:02.601Z,0.90
2019-05-13T13:13:56.219Z,3.00
2019-05-13T13:16:03.272Z,1.20
2019-05-13T13:18:29.161Z,1.10
2019-05-13T13:21:01.317Z,1.20
2019-05-13T13:23:26.054Z,1.37
2019-05-13T13:25:57.201Z,1.23
2019-05-13T13:28:24.338Z,1.30
2019-05-13T13:30:52.823Z,1.83
2019-05-13T13:33:20.960Z,1.70
2019-05-13T13:35:58.622Z,1.00
2019-05-13T13:38:17.815Z,1.37
2019-05-13T13:40:45.970Z,1.10
2019-05-13T13:43:14.141Z,1.00
2019-05-13T13:46:06.730Z,1.53
2019-05-13T13:48:13.412Z,1.17
2019-05-13T13:50:44.386Z,1.40
2019-05-13T13:55:55.839Z,2.00
2019-05-13T13:58:25.392Z,1.50
2019-05-13T14:01:05.006Z,1.13
2019-05-13T14:03:20.131Z,1.20
2019-05-13T14:05:47.644Z,1.70
2019-05-13T14:06:59.164Z,1.37
2019-05-13T14:08:15.222Z,1.40
2019-05-13T14:10:42.930Z,1.40
2019-05-13T14:13:12.523Z,1.50
2019-05-13T14:15:41.780Z,1.03
2019-05-13T14:18:26.547Z,1.10
2019-05-13T14:20:52.864Z,1.10
2019-05-13T14:23:21.344Z,1.07
2019-05-13T14:25:49.106Z,1.00
2019-05-13T14:28:17.833Z,1.30
2019-05-13T14:30:45.477Z,0.90
2019-05-13T14:33:35.262Z,1.07
2019-05-13T14:36:01.777Z,0.90
2019-05-13T14:38:32.288Z,1.20
2019-05-13T14:40:58.735Z,1.23
2019-05-13T14:43:26.174Z,1.37
2019-05-13T14:45:53.749Z,1.00
2019-05-13T14:48:22.336Z,1.87
2019-05-13T14:50:52.115Z,1.00
2019-05-13T14:53:21.467Z,2.00
2019-05-13T14:55:48.857Z,1.60
2019-05-13T14:58:16.491Z,0.80
2019-05-13T15:00:44.276Z,1.10
2019-05-13T15:03:13.053Z,1.10
2019-05-13T15:05:42.981Z,1.30
2019-05-13T15:08:10.589Z,1.20
2019-05-13T15:10:41.742Z,1.10
2019-05-13T15:13:08.890Z,1.43
2019-05-13T15:15:36.576Z,1.20
2019-05-13T15:18:04.934Z,1.00
2019-05-13T15:20:33.275Z,1.07
2019-05-13T15:23:00.950Z,1.20
2019-05-13T15:25:28.517Z,1.30
2019-05-13T15:27:55.932Z,1.00
2019-05-13T15:30:23.552Z,1.57
2019-05-13T15:32:52.550Z,1.40
2019-05-13T15:35:20.534Z,1.10
2019-05-13T15:37:48.129Z,1.30
2019-05-13T15:40:16.744Z,1.30
2019-05-13T15:42:44.523Z,1.03
2019-05-13T15:45:13.180Z,1.20
2019-05-13T15:47:40.692Z,1.20
2019-05-13T15:50:09.314Z,1.40
2019-05-13T15:52:37.497Z,1.20
2019-05-13T15:55:05.511Z,1.43
2019-05-13T15:57:32.956Z,1.93
2019-05-13T16:00:01.904Z,1.10
2019-05-13T16:02:31.372Z,1.20
2019-05-13T16:05:02.202Z,1.20
2019-05-13T16:07:28.587Z,1.13
2019-05-13T16:09:56.149Z,1.30
2019-05-13T16:12:23.726Z,1.40
2019-05-13T16:14:51.883Z,1.77
2019-05-13T16:17:30.636Z,1.10
2019-05-13T16:19:49.205Z,1.10
2019-05-13T16:22:16.832Z,1.13
2019-05-13T16:24:45.184Z,1.57
2019-05-13T16:27:13.723Z,0.93
2019-05-13T16:29:42.242Z,0.90
2019-05-13T16:32:27.804Z,0.77
2019-05-13T16:34:42.334Z,1.10
2019-05-13T16:37:11.777Z,1.80
2019-05-13T16:39:41.390Z,1.97
2019-05-13T16:42:11.656Z,0.80
2019-05-13T16:44:39.437Z,1.00
2019-05-13T16:47:07.011Z,1.10
2019-05-13T16:49:34.602Z,0.93
2019-05-13T16:52:02.728Z,0.90
2019-05-13T16:54:32.941Z,4.90
2019-05-13T16:57:01.168Z,1.10
2019-05-13T16:59:29.011Z,0.93
2019-05-13T17:01:56.522Z,0.93
2019-05-13T17:04:24.002Z,1.00
2019-05-13T17:06:53.129Z,0.87
2019-05-13T17:09:20.794Z,1.00
2019-05-13T17:11:48.140Z,1.00
2019-05-13T17:14:15.860Z,1.20
2019-05-13T17:16:43.785Z,1.30
2019-05-13T17:19:12.928Z,1.00
2019-05-13T17:21:41.536Z,1.20
2019-05-13T17:24:12.312Z,1.20
2019-05-13T17:26:41.600Z,1.10
2019-05-13T17:29:08.672Z,1.67
2019-05-13T17:31:36.167Z,1.17
2019-05-13T17:34:03.746Z,1.00
2019-05-13T17:36:32.518Z,1.10
2019-05-13T17:39:01.830Z,1.43
2019-05-13T17:41:32.090Z,1.57
2019-05-13T17:44:12.891Z,1.37
2019-05-13T17:46:41.907Z,1.53
2019-05-13T17:49:11.723Z,1.50
2019-05-13T17:51:39.274Z,1.70
2019-05-13T17:54:06.794Z,1.43
2019-05-13T17:56:34.414Z,1.60
2019-05-13T17:59:01.963Z,1.50
2019-05-13T18:01:31.600Z,2.07
2019-05-13T18:03:58.831Z,1.67
2019-05-13T18:06:26.442Z,1.30
2019-05-13T18:08:54.177Z,1.50
2019-05-13T18:11:22.023Z,1.47
2019-05-13T18:13:51.701Z,1.50
2019-05-13T18:16:18.861Z,0.90
2019-05-13T18:18:47.705Z,1.57
2019-05-13T18:21:16.415Z,1.60
2019-05-13T18:23:44.069Z,1.80
2019-05-13T18:26:16.094Z,2.03
2019-05-13T18:28:42.144Z,2.10
2019-05-13T18:31:12.094Z,2.67
2019-05-13T18:33:39.353Z,6.97
2019-05-13T18:36:07.564Z,2.10
2019-05-13T18:38:35.708Z,3.00
2019-05-13T18:41:03.332Z,1.40
2019-05-13T18:43:32.156Z,1.60
2019-05-13T18:46:02.102Z,1.40
2019-05-13T18:48:29.145Z,1.33
2019-05-13T18:50:56.750Z,1.70
2019-05-13T18:53:24.355Z,1.10
2019-05-13T18:55:52.634Z,1.20
2019-05-13T18:58:22.257Z,1.60
2019-05-13T19:00:52.053Z,1.40
2019-05-13T19:03:21.581Z,1.60
2019-05-13T19:05:48.621Z,1.40
2019-05-13T19:08:16.134Z,1.87
2019-05-13T19:10:43.887Z,1.30
2019-05-13T19:13:12.431Z,1.97
2019-05-13T19:15:41.162Z,1.47
2019-05-13T19:18:09.221Z,2.07
2019-05-13T19:20:37.290Z,1.57
2019-05-13T19:23:04.957Z,1.97
2019-05-13T19:25:32.658Z,2.20
2019-05-13T19:28:02.383Z,1.80
2019-05-13T19:30:31.683Z,1.80
2019-05-13T19:33:01.333Z,1.67
2019-05-13T19:35:28.766Z,1.53
2019-05-13T19:37:56.338Z,1.70
2019-05-13T19:40:24.072Z,1.57
2019-05-13T19:42:52.277Z,1.73
2019-05-13T19:45:21.708Z,1.40
2019-05-13T19:47:49.086Z,1.50
2019-05-13T19:50:16.766Z,1.70
2019-05-13T19:52:44.311Z,2.00
2019-05-13T19:55:12.186Z,3.10
2019-05-13T19:57:42.521Z,2.00
2019-05-13T20:00:13.716Z,1.70
2019-05-13T20:02:42.059Z,1.57
2019-05-13T20:05:09.489Z,1.63
2019-05-13T20:07:37.582Z,1.97
2019-05-13T20:10:05.382Z,2.30
2019-05-13T20:12:33.037Z,1.77
2019-05-13T20:15:01.434Z,2.23
2019-05-13T20:17:29.314Z,1.97
2019-05-13T20:19:56.905Z,2.40
2019-05-13T20:22:24.551Z,2.50
2019-05-13T20:24:52.230Z,2.73
2019-05-13T20:27:20.997Z,2.43
2019-05-13T20:29:51.072Z,2.27
2019-05-13T20:32:18.461Z,2.20
2019-05-13T20:34:46.017Z,2.60
2019-05-13T20:37:13.834Z,2.20
2019-05-13T20:39:42.485Z,3.10
2019-05-13T20:42:12.505Z,2.90
2019-05-13T20:44:41.967Z,3.60
2019-05-13T20:47:10.299Z,2.77
2019-05-13T20:49:41.797Z,3.00
2019-05-13T20:52:15.341Z,3.40
2019-05-13T20:54:42.265Z,3.50
2019-05-13T20:57:09.869Z,3.70
2019-05-13T20:59:38.081Z,4.10
2019-05-13T21:02:08.033Z,4.17
2019-05-13T21:04:40.275Z,3.73
2019-05-13T21:07:09.860Z,3.10
2019-05-13T21:09:42.750Z,2.87
2019-05-13T21:12:13.386Z,2.70
2019-05-13T21:14:43.095Z,3.60
2019-05-13T21:17:16.195Z,4.67
2019-05-13T21:19:46.817Z,3.87
2019-05-13T21:22:16.728Z,4.67
2019-05-13T21:24:44.715Z,3.90
2019-05-13T21:27:12.605Z,3.77
2019-05-13T21:29:41.522Z,4.60
2019-05-13T21:32:11.752Z,4.57
2019-05-13T21:34:39.643Z,4.00
2019-05-13T21:37:07.367Z,4.20
2019-05-13T21:39:35.255Z,4.00
2019-05-13T21:42:05.351Z,4.77
2019-05-13T21:44:35.547Z,4.43
2019-05-13T21:47:07.164Z,4.77
2019-05-13T21:49:35.230Z,4.03
2019-05-13T21:52:04.618Z,5.93
2019-05-13T21:54:36.111Z,4.43
2019-05-13T21:57:05.736Z,4.60
2019-05-13T21:59:33.447Z,4.57
2019-05-13T22:02:01.677Z,5.00
2019-05-13T22:04:29.439Z,5.20
2019-05-13T22:06:57.254Z,4.47
2019-05-13T22:09:24.866Z,4.67
2019-05-13T22:11:52.286Z,4.90
2019-05-13T22:14:19.759Z,4.80
2019-05-13T22:16:47.365Z,4.13
2019-05-13T22:19:15.072Z,4.23
2019-05-13T22:21:42.576Z,5.80
2019-05-13T22:24:11.566Z,4.33
2019-05-13T22:26:41.733Z,4.60
2019-05-13T22:29:08.732Z,4.70
2019-05-13T22:31:36.181Z,4.03
2019-05-13T22:34:03.873Z,4.20
2019-05-13T22:36:31.821Z,3.60
2019-05-13T22:39:01.965Z,3.90
2019-05-13T22:41:31.274Z,4.23
2019-05-13T22:43:59.128Z,4.73
2019-05-13T22:46:26.818Z,4.37
2019-05-13T22:48:54.386Z,4.60
2019-05-13T22:51:22.056Z,4.30
2019-05-13T22:53:49.847Z,4.37
2019-05-13T22:56:17.338Z,4.70
2019-05-13T22:58:44.763Z,3.30
2019-05-13T23:01:12.352Z,4.03
2019-05-13T23:03:41.221Z,4.90
2019-05-13T23:06:08.870Z,4.30
2019-05-13T23:08:36.441Z,4.60
2019-05-13T23:11:04.614Z,4.30
2019-05-13T23:13:32.565Z,4.47
2019-05-13T23:16:02.118Z,5.80
2019-05-13T23:18:31.714Z,4.40
2019-05-13T23:20:59.117Z,4.87
2019-05-13T23:23:26.813Z,4.53
2019-05-13T23:25:56.832Z,4.07
2019-05-13T23:28:23.945Z,4.70
2019-05-13T23:30:51.537Z,4.90
2019-05-13T23:33:19.332Z,4.77
2019-05-13T23:35:46.890Z,4.30
2019-05-13T23:38:14.608Z,5.30
2019-05-13T23:40:42.252Z,4.80
2019-05-13T23:43:11.292Z,5.10
2019-05-13T23:45:39.118Z,5.50
2019-05-13T23:48:06.665Z,5.60
2019-05-13T23:50:34.511Z,5.10
2019-05-13T23:53:02.130Z,5.10
2019-05-13T23:55:31.968Z,5.27
2019-05-13T23:58:01.545Z,6.17
